createdAt,value
2018-05-23T00:01:04.587Z,94148.95
2018-05-23T00:03:32.139Z,94148.37
2018-05-23T00:05:59.681Z,94147.39
2018-05-23T00:08:27.273Z,94146.01
2018-05-23T00:10:54.817Z,94139.09
2018-05-23T00:13:22.389Z,94140.33
2018-05-23T00:15:50.061Z,94147.19
2018-05-23T00:18:17.609Z,94142.88
2018-05-23T00:20:45.152Z,94139.92
2018-05-23T00:23:12.865Z,94138.32
2018-05-23T00:25:40.415Z,94142.63
2018-05-23T00:28:07.952Z,94143.90
2018-05-23T00:30:35.544Z,94147.63
2018-05-23T00:33:03.096Z,94153.16
2018-05-23T00:35:30.680Z,94158.03
2018-05-23T00:37:58.305Z,94147.51
2018-05-23T00:40:25.866Z,94149.04
2018-05-23T00:42:53.415Z,94146.98
2018-05-23T00:45:21.170Z,94145.09
2018-05-23T00:47:48.724Z,94141.81
2018-05-23T00:50:16.285Z,94144.94
2018-05-23T00:52:43.904Z,94143.76
2018-05-23T00:55:23.065Z,94150.08
2018-05-23T00:57:50.796Z,94141.39
2018-05-23T01:00:18.342Z,94152.06
2018-05-23T01:02:45.910Z,94146.37
2018-05-23T01:05:13.631Z,94148.61
2018-05-23T01:07:41.181Z,94147.53
2018-05-23T01:10:08.749Z,94136.21
2018-05-23T01:12:37.364Z,94139.05
2018-05-23T01:15:04.939Z,94138.77
2018-05-23T01:17:32.473Z,94143.66
2018-05-23T01:20:00.079Z,94140.80
2018-05-23T01:22:27.667Z,94138.38
2018-05-23T01:24:55.217Z,94132.22
2018-05-23T01:27:22.946Z,94129.28
2018-05-23T01:29:50.493Z,94130.00
2018-05-23T01:32:18.049Z,94128.48
2018-05-23T01:34:45.789Z,94132.48
2018-05-23T01:37:13.324Z,94128.05
2018-05-23T01:39:40.856Z,94128.55
2018-05-23T01:42:08.459Z,94126.50
2018-05-23T01:44:36.015Z,94132.43
2018-05-23T01:47:03.577Z,94132.13
2018-05-23T01:49:31.161Z,94130.78
2018-05-23T01:51:58.712Z,94127.02
2018-05-23T01:54:26.263Z,94127.94
2018-05-23T01:56:53.867Z,94128.89
2018-05-23T01:59:21.420Z,94130.30
2018-05-23T02:01:48.991Z,94131.61
2018-05-23T02:04:16.755Z,94129.16
2018-05-23T02:06:44.328Z,94129.60
2018-05-23T02:09:11.875Z,94128.34
2018-05-23T02:11:39.461Z,94132.62
2018-05-23T02:14:07.012Z,94134.09
2018-05-23T02:16:34.564Z,94132.48
2018-05-23T02:19:02.329Z,94128.72
2018-05-23T02:21:29.868Z,94133.55
2018-05-23T02:23:57.418Z,94129.42
2018-05-23T02:26:25.015Z,94129.42
2018-05-23T02:28:52.571Z,94131.63
2018-05-23T02:31:20.142Z,94127.84
2018-05-23T02:33:47.836Z,94118.34
2018-05-23T02:36:15.395Z,94116.30
2018-05-23T02:38:42.970Z,94122.05
2018-05-23T02:41:10.569Z,94120.47
2018-05-23T02:43:38.165Z,94115.14
2018-05-23T02:46:05.757Z,94116.73
2018-05-23T02:48:33.673Z,94116.66
2018-05-23T02:51:01.254Z,94118.84
2018-05-23T02:53:28.808Z,94123.48
2018-05-23T02:55:56.431Z,94115.23
2018-05-23T02:58:23.977Z,94117.34
2018-05-23T03:00:51.531Z,94115.94
2018-05-23T03:03:19.109Z,94113.78
2018-05-23T03:05:46.656Z,94115.09
2018-05-23T03:08:14.203Z,94117.19
2018-05-23T03:10:42.545Z,94124.80
2018-05-23T03:13:10.112Z,94126.54
2018-05-23T03:15:37.664Z,94124.82
2018-05-23T03:18:05.267Z,94116.00
2018-05-23T03:20:32.814Z,94119.36
2018-05-23T03:23:00.354Z,94122.69
2018-05-23T03:25:28.259Z,94125.88
2018-05-23T03:27:55.839Z,94122.84
2018-05-23T03:30:23.408Z,94121.91
2018-05-23T03:32:50.999Z,94128.03
2018-05-23T03:35:18.559Z,94121.73
2018-05-23T03:37:46.125Z,94126.44
2018-05-23T03:40:13.709Z,94125.50
2018-05-23T03:42:41.256Z,94126.25
2018-05-23T03:45:08.817Z,94127.81
2018-05-23T03:47:36.517Z,94128.38
2018-05-23T03:50:04.970Z,94130.42
2018-05-23T03:52:33.300Z,94129.27
2018-05-23T03:55:01.035Z,94127.30
2018-05-23T03:57:28.576Z,94127.85
2018-05-23T04:00:07.801Z,94131.08
2018-05-23T04:02:46.968Z,94133.19
2018-05-23T04:08:22.460Z,94127.93
2018-05-23T04:10:50.041Z,94129.69
2018-05-23T04:13:17.594Z,94130.50
2018-05-23T04:15:45.153Z,94125.70
2018-05-23T04:18:12.752Z,94128.73
2018-05-23T04:20:40.299Z,94130.47
2018-05-23T04:23:07.851Z,94128.80
2018-05-23T04:25:35.553Z,94124.84
2018-05-23T04:28:03.096Z,94123.05
2018-05-23T04:30:30.748Z,94127.72
2018-05-23T04:32:58.319Z,94119.77
2018-05-23T04:35:25.869Z,94121.89
2018-05-23T04:37:53.437Z,94119.59
2018-05-23T04:40:21.037Z,94114.50
2018-05-23T04:42:48.597Z,94110.70
2018-05-23T04:45:16.165Z,94119.58
2018-05-23T04:47:43.752Z,94116.63
2018-05-23T04:50:11.402Z,94110.83
2018-05-23T04:52:38.951Z,94102.19
2018-05-23T04:55:06.689Z,94112.70
2018-05-23T04:57:34.251Z,94116.13
2018-05-23T05:00:01.809Z,94121.20
2018-05-23T05:02:29.400Z,94117.48
2018-05-23T05:04:56.997Z,94118.86
2018-05-23T05:07:24.561Z,94113.75
2018-05-23T05:09:52.141Z,94123.75
2018-05-23T05:12:19.750Z,94122.31
2018-05-23T05:14:47.292Z,94128.91
2018-05-23T05:17:14.877Z,94126.20
2018-05-23T05:19:42.432Z,94128.99
2018-05-23T05:22:09.978Z,94133.89
2018-05-23T05:24:37.654Z,94146.98
2018-05-23T05:27:05.212Z,94142.27
2018-05-23T05:29:32.753Z,94138.56
2018-05-23T05:32:00.494Z,94150.56
2018-05-23T05:34:29.040Z,94146.04
2018-05-23T05:36:56.613Z,94145.75
2018-05-23T05:39:24.418Z,94149.36
2018-05-23T05:41:51.968Z,94145.05
2018-05-23T05:44:19.523Z,94150.39
2018-05-23T05:46:47.131Z,94151.50
2018-05-23T05:49:14.696Z,94151.09
2018-05-23T05:51:42.269Z,94158.91
2018-05-23T05:54:10.152Z,94156.88
2018-05-23T05:56:37.695Z,94159.52
2018-05-23T05:59:05.258Z,94167.84
2018-05-23T06:01:33.168Z,94169.15
2018-05-23T06:04:00.719Z,94168.91
2018-05-23T06:06:28.266Z,94169.59
2018-05-23T06:08:55.841Z,94170.44
2018-05-23T06:11:23.425Z,94180.73
2018-05-23T06:13:50.971Z,94177.28
2018-05-23T06:16:18.554Z,94176.11
2018-05-23T06:18:46.114Z,94171.23
2018-05-23T06:21:13.675Z,94172.28
2018-05-23T06:23:41.261Z,94174.70
2018-05-23T06:26:08.840Z,94171.55
2018-05-23T06:28:36.398Z,94169.65
2018-05-23T06:31:04.061Z,94177.47
2018-05-23T06:33:31.629Z,94176.57
2018-05-23T06:35:59.193Z,94181.34
2018-05-23T06:38:26.789Z,94175.63
2018-05-23T06:40:54.361Z,94171.91
2018-05-23T06:43:21.926Z,94172.92
2018-05-23T06:45:49.520Z,94165.38
2018-05-23T06:48:17.080Z,94166.39
2018-05-23T06:50:44.641Z,94168.13
2018-05-23T06:53:12.386Z,94169.22
2018-05-23T06:55:39.924Z,94164.23
2018-05-23T06:58:07.482Z,94164.31
2018-05-23T07:00:35.064Z,94165.78
2018-05-23T07:03:02.620Z,94154.66
2018-05-23T07:05:30.187Z,94156.78
2018-05-23T07:07:57.773Z,94157.38
2018-05-23T07:10:25.333Z,94160.62
2018-05-23T07:12:52.879Z,94158.83
2018-05-23T07:15:20.457Z,94159.91
2018-05-23T07:17:48.044Z,94155.97
2018-05-23T07:20:15.610Z,94156.36
2018-05-23T07:22:43.350Z,94152.91
2018-05-23T07:25:10.923Z,94154.41
2018-05-23T07:27:38.475Z,94158.16
2018-05-23T07:30:06.335Z,94159.11
2018-05-23T07:32:33.881Z,94157.55
2018-05-23T07:35:01.430Z,94146.07
2018-05-23T07:37:29.028Z,94143.66
2018-05-23T07:39:56.592Z,94145.11
2018-05-23T07:42:24.133Z,94143.62
2018-05-23T07:44:51.723Z,94145.28
2018-05-23T07:47:19.276Z,94147.53
2018-05-23T07:49:46.827Z,94143.95
2018-05-23T07:52:14.411Z,94138.85
2018-05-23T07:54:41.961Z,94140.16
2018-05-23T07:57:09.552Z,94146.98
2018-05-23T07:59:37.117Z,94139.89
2018-05-23T08:02:04.679Z,94135.95
2018-05-23T08:04:32.268Z,94141.84
2018-05-23T08:07:00.208Z,94142.10
2018-05-23T08:09:27.762Z,94146.48
2018-05-23T08:11:55.363Z,94141.80
2018-05-23T08:14:22.938Z,94138.41
2018-05-23T08:16:50.504Z,94138.88
2018-05-23T08:19:18.086Z,94141.36
2018-05-23T08:21:45.639Z,94140.69
2018-05-23T08:24:13.188Z,94141.11
2018-05-23T08:26:40.792Z,94140.18
2018-05-23T08:29:08.346Z,94134.52
2018-05-23T08:31:35.998Z,94132.52
2018-05-23T08:34:03.927Z,94133.74
2018-05-23T08:36:31.555Z,94135.09
2018-05-23T08:38:59.093Z,94130.84
2018-05-23T08:41:26.771Z,94132.56
2018-05-23T08:43:54.333Z,94122.73
2018-05-23T08:46:21.892Z,94128.48
2018-05-23T08:48:49.573Z,94122.92
2018-05-23T08:51:17.124Z,94117.72
2018-05-23T08:53:44.672Z,94119.99
2018-05-23T08:56:12.352Z,94112.61
2018-05-23T08:58:39.900Z,94120.91
2018-05-23T09:01:07.461Z,94117.31
2018-05-23T09:03:35.149Z,94113.78
2018-05-23T09:06:02.696Z,94111.83
2018-05-23T09:08:30.248Z,94110.34
2018-05-23T09:10:57.997Z,94110.34
2018-05-23T09:13:25.566Z,94112.21
2018-05-23T09:15:53.113Z,94118.03
2018-05-23T09:18:20.806Z,94107.48
2018-05-23T09:20:48.350Z,94107.23
2018-05-23T09:23:15.904Z,94103.63
2018-05-23T09:25:43.653Z,94098.78
2018-05-23T09:28:11.207Z,94102.88
2018-05-23T09:30:38.757Z,94099.63
2018-05-23T09:33:06.487Z,94093.08
2018-05-23T09:35:34.050Z,94091.83
2018-05-23T09:38:01.592Z,94092.89
2018-05-23T09:40:29.172Z,94092.08
2018-05-23T09:42:56.729Z,94076.53
2018-05-23T09:45:24.280Z,94076.13
2018-05-23T09:47:51.870Z,94069.38
2018-05-23T09:50:19.432Z,94065.61
2018-05-23T09:52:46.979Z,94068.60
2018-05-23T09:55:14.683Z,94068.45
2018-05-23T09:57:42.243Z,94063.17
2018-05-23T10:00:09.835Z,94061.01
2018-05-23T10:02:37.419Z,94055.05
2018-05-23T10:05:04.972Z,94059.30
2018-05-23T10:07:32.530Z,94054.91
2018-05-23T10:10:00.146Z,94053.86
2018-05-23T10:12:27.686Z,94059.72
2018-05-23T10:14:55.964Z,94054.11
2018-05-23T10:17:23.884Z,94048.94
2018-05-23T10:19:51.436Z,94047.41
2018-05-23T10:22:19.001Z,94039.74
2018-05-23T10:24:46.587Z,94033.50
2018-05-23T10:27:14.146Z,94034.51
2018-05-23T10:29:41.697Z,94032.80
2018-05-23T10:32:09.278Z,94029.23
2018-05-23T10:34:36.837Z,94040.23
2018-05-23T10:37:04.394Z,94020.11
2018-05-23T10:39:32.084Z,94024.78
2018-05-23T10:41:59.670Z,94015.38
2018-05-23T10:44:27.245Z,94004.77
2018-05-23T10:46:54.996Z,94009.94
2018-05-23T10:49:22.549Z,94008.23
2018-05-23T10:51:50.098Z,94001.30
2018-05-23T10:54:17.663Z,93998.35
2018-05-23T10:56:45.215Z,93991.33
2018-05-23T10:59:12.764Z,93988.61
2018-05-23T11:01:40.366Z,93985.16
2018-05-23T11:04:07.920Z,93994.26
2018-05-23T11:06:35.522Z,93988.00
2018-05-23T11:09:03.238Z,93979.19
2018-05-23T11:11:30.754Z,93988.52
2018-05-23T11:13:58.320Z,93981.30
2018-05-23T11:16:26.087Z,93981.30
2018-05-23T11:18:53.640Z,93980.03
2018-05-23T11:21:21.235Z,93970.72
2018-05-23T11:23:48.811Z,93973.39
2018-05-23T11:26:16.357Z,93968.69
2018-05-23T11:28:43.908Z,93967.50
2018-05-23T11:31:11.507Z,93962.73
2018-05-23T11:33:39.054Z,93956.91
2018-05-23T11:36:06.614Z,93959.14
2018-05-23T11:38:34.296Z,93953.42
2018-05-23T11:41:01.858Z,93956.48
2018-05-23T11:43:29.399Z,93955.94
2018-05-23T11:45:57.088Z,93946.36
2018-05-23T11:48:24.652Z,93938.45
2018-05-23T11:50:52.209Z,93944.17
2018-05-23T11:53:19.794Z,93939.86
2018-05-23T11:55:47.339Z,93938.66
2018-05-23T11:58:14.888Z,93931.95
2018-05-23T12:00:42.497Z,93937.58
2018-05-23T12:03:10.066Z,93927.83
2018-05-23T12:05:37.612Z,93932.03
2018-05-23T12:08:05.205Z,93925.67
2018-05-23T12:10:32.802Z,93919.52
2018-05-23T12:13:00.355Z,93920.77
2018-05-23T12:15:28.061Z,93916.57
2018-05-23T12:17:55.622Z,93911.07
2018-05-23T12:20:23.196Z,93913.92
2018-05-23T12:22:50.795Z,93910.00
2018-05-23T12:25:18.373Z,93904.98
2018-05-23T12:27:45.930Z,93894.07
2018-05-23T12:30:13.519Z,93881.73
2018-05-23T12:32:41.073Z,93882.52
2018-05-23T12:35:08.616Z,93884.34
2018-05-23T12:37:36.208Z,93874.30
2018-05-23T12:40:03.791Z,93879.28
2018-05-23T12:42:31.332Z,93871.51
2018-05-23T12:44:59.059Z,93873.53
2018-05-23T12:47:26.609Z,93876.89
2018-05-23T12:49:54.171Z,93875.70
2018-05-23T12:52:21.769Z,93880.77
2018-05-23T12:54:49.325Z,93877.80
2018-05-23T12:57:16.875Z,93879.36
2018-05-23T12:59:44.458Z,93880.53
2018-05-23T13:02:12.008Z,93878.55
2018-05-23T13:04:39.741Z,93868.52
2018-05-23T13:07:07.279Z,93875.25
2018-05-23T13:09:34.834Z,93872.64
2018-05-23T13:12:02.531Z,93868.13
2018-05-23T13:14:30.077Z,93865.08
2018-05-23T13:16:57.621Z,93864.94
2018-05-23T13:19:25.319Z,93865.67
2018-05-23T13:21:52.882Z,93861.08
2018-05-23T13:24:20.434Z,93859.45
2018-05-23T13:26:48.122Z,93857.03
2018-05-23T13:29:15.668Z,93850.28
2018-05-23T13:31:43.219Z,93850.20
2018-05-23T13:34:10.902Z,93851.19
2018-05-23T13:36:38.449Z,93849.27
2018-05-23T13:39:06.027Z,93851.67
2018-05-23T13:41:33.622Z,93856.06
2018-05-23T13:44:01.171Z,93856.01
2018-05-23T13:46:28.776Z,93854.81
2018-05-23T13:48:56.383Z,93860.91
2018-05-23T13:51:23.920Z,93852.02
2018-05-23T13:53:51.473Z,93851.20
2018-05-23T13:56:19.326Z,93859.39
2018-05-23T13:58:46.878Z,93871.42
2018-05-23T14:01:14.425Z,93858.45
2018-05-23T14:03:42.014Z,93856.83
2018-05-23T14:06:09.563Z,93861.55
2018-05-23T14:08:37.121Z,93861.09
2018-05-23T14:11:04.860Z,93861.37
2018-05-23T14:13:32.404Z,93865.93
2018-05-23T14:15:59.967Z,93869.98
2018-05-23T14:18:27.557Z,93866.02
2018-05-23T14:20:55.212Z,93864.88
2018-05-23T14:23:22.725Z,93861.09
2018-05-23T14:25:50.487Z,93846.61
2018-05-23T14:28:18.048Z,93843.27
2018-05-23T14:30:45.608Z,93838.60
2018-05-23T14:33:13.346Z,93827.42
2018-05-23T14:35:40.896Z,93846.27
2018-05-23T14:38:08.476Z,93846.52
2018-05-23T14:40:36.088Z,93844.73
2018-05-23T14:43:03.635Z,93850.27
2018-05-23T14:45:31.185Z,93842.87
2018-05-23T14:47:59.120Z,93846.88
2018-05-23T14:50:26.678Z,93856.48
2018-05-23T14:52:54.234Z,93862.34
2018-05-23T14:55:21.988Z,93863.69
2018-05-23T14:57:49.543Z,93867.19
2018-05-23T15:00:17.092Z,93863.41
2018-05-23T15:02:44.680Z,93860.18
2018-05-23T15:05:12.241Z,93867.58
2018-05-23T15:07:39.792Z,93868.06
2018-05-23T15:10:07.531Z,93861.45
2018-05-23T15:12:35.077Z,93865.66
2018-05-23T15:15:02.625Z,93862.58
2018-05-23T15:17:30.322Z,93866.58
2018-05-23T15:19:57.982Z,93868.69
2018-05-23T15:22:25.466Z,93870.08
2018-05-23T15:24:53.199Z,93864.66
2018-05-23T15:27:20.863Z,93867.95
2018-05-23T15:29:48.358Z,93869.80
2018-05-23T15:32:15.950Z,93880.89
2018-05-23T15:34:43.492Z,93880.17
2018-05-23T15:37:11.064Z,93881.12
2018-05-23T15:39:38.643Z,93876.19
2018-05-23T15:42:06.216Z,93869.20
2018-05-23T15:44:33.764Z,93867.75
2018-05-23T15:47:01.452Z,93876.52
2018-05-23T15:49:29.029Z,93872.28
2018-05-23T15:51:56.586Z,93876.73
2018-05-23T15:54:24.497Z,93876.28
2018-05-23T15:56:53.287Z,93877.17
2018-05-23T15:59:20.841Z,93869.20
2018-05-23T16:01:48.469Z,93873.80
2018-05-23T16:04:16.058Z,93863.06
2018-05-23T16:06:43.609Z,93865.43
2018-05-23T16:09:11.297Z,93860.03
2018-05-23T16:11:38.852Z,93863.98
2018-05-23T16:14:06.412Z,93856.44
2018-05-23T16:16:33.989Z,93862.78
2018-05-23T16:19:01.564Z,93864.63
2018-05-23T16:21:29.123Z,93867.88
2018-05-23T16:23:57.035Z,93864.80
2018-05-23T16:26:24.604Z,93866.05
2018-05-23T16:28:52.640Z,93869.47
2018-05-23T16:31:20.386Z,93873.98
2018-05-23T16:33:47.956Z,93873.47
2018-05-23T16:36:15.492Z,93876.23
2018-05-23T16:38:43.183Z,93872.34
2018-05-23T16:41:10.773Z,93872.63
2018-05-23T16:43:38.315Z,93876.03
2018-05-23T16:46:06.078Z,93868.11
2018-05-23T16:48:33.631Z,93868.34
2018-05-23T16:51:01.178Z,93870.55
2018-05-23T16:53:28.761Z,93860.61
2018-05-23T16:55:56.338Z,93866.24
2018-05-23T16:58:23.911Z,93861.80
2018-05-23T17:00:51.501Z,93850.48
2018-05-23T17:03:19.049Z,93854.07
2018-05-23T17:05:46.962Z,93846.16
2018-05-23T17:08:14.544Z,93848.84
2018-05-23T17:10:42.105Z,93839.44
2018-05-23T17:13:10.000Z,93831.54
2018-05-23T17:15:37.575Z,93825.22
2018-05-23T17:18:05.152Z,93827.23
2018-05-23T17:20:32.765Z,93821.11
2018-05-23T17:23:00.338Z,93816.91
2018-05-23T17:25:27.887Z,93809.02
2018-05-23T17:27:55.612Z,93812.80
2018-05-23T17:30:23.173Z,93812.01
2018-05-23T17:32:50.718Z,93807.65
2018-05-23T17:35:18.332Z,93809.66
2018-05-23T17:37:45.902Z,93810.91
2018-05-23T17:40:13.529Z,93820.74
2018-05-23T17:42:41.196Z,93797.81
2018-05-23T17:45:08.793Z,93799.18
2018-05-23T17:47:36.357Z,93799.27
2018-05-23T17:50:04.083Z,93797.78
2018-05-23T17:52:31.648Z,93792.52
2018-05-23T17:54:59.260Z,93789.91
2018-05-23T17:57:26.945Z,93785.69
2018-05-23T17:59:54.496Z,93784.16
2018-05-23T18:02:22.058Z,93779.27
2018-05-23T18:04:49.669Z,93780.38
2018-05-23T18:07:17.279Z,93772.34
2018-05-23T18:09:44.838Z,93776.65
2018-05-23T18:12:12.444Z,93784.97
2018-05-23T18:14:40.021Z,93784.31
2018-05-23T18:17:07.585Z,93787.83
2018-05-23T18:19:35.178Z,93786.59
2018-05-23T18:22:02.723Z,93786.27
2018-05-23T18:24:30.271Z,93782.91
2018-05-23T18:26:58.047Z,93786.17
2018-05-23T18:29:25.692Z,93784.34
2018-05-23T18:31:53.214Z,93780.45
2018-05-23T18:34:20.798Z,93782.14
2018-05-23T18:36:48.353Z,93782.22
2018-05-23T18:39:15.923Z,93788.05
2018-05-23T18:41:43.533Z,93792.38
2018-05-23T18:44:11.097Z,93792.84
2018-05-23T18:46:38.667Z,93798.63
2018-05-23T18:49:06.243Z,93799.73
2018-05-23T18:51:33.805Z,93807.55
2018-05-23T18:54:01.370Z,93812.41
2018-05-23T18:56:29.092Z,93805.60
2018-05-23T18:58:56.645Z,93811.77
2018-05-23T19:01:24.209Z,93811.95
2018-05-23T19:03:51.975Z,93814.91
2018-05-23T19:06:19.527Z,93819.91
2018-05-23T19:08:47.064Z,93827.52
2018-05-23T19:11:14.641Z,93824.27
2018-05-23T19:13:42.208Z,93832.84
2018-05-23T19:16:09.761Z,93833.14
2018-05-23T19:18:37.367Z,93838.48
2018-05-23T19:21:04.967Z,93838.45
2018-05-23T19:23:32.541Z,93842.30
2018-05-23T19:26:00.159Z,93844.58
2018-05-23T19:28:27.708Z,93850.11
2018-05-23T19:30:55.266Z,93844.47
2018-05-23T19:33:22.913Z,93850.26
2018-05-23T19:35:50.476Z,93851.64
2018-05-23T19:38:18.014Z,93857.70
2018-05-23T19:40:45.589Z,93858.50
2018-05-23T19:43:13.161Z,93858.91
2018-05-23T19:45:40.715Z,93865.89
2018-05-23T19:48:08.348Z,93860.32
2018-05-23T19:50:35.896Z,93866.05
2018-05-23T19:53:03.456Z,93871.13
2018-05-23T19:55:31.044Z,93873.50
2018-05-23T19:57:58.631Z,93875.63
2018-05-23T20:00:26.229Z,93871.07
2018-05-23T20:02:54.306Z,93879.17
2018-05-23T20:05:21.867Z,93874.20
2018-05-23T20:07:49.410Z,93872.55
2018-05-23T20:10:17.037Z,93880.00
2018-05-23T20:12:44.602Z,93882.50
2018-05-23T20:15:12.144Z,93881.47
2018-05-23T20:17:39.896Z,93889.08
2018-05-23T20:20:07.469Z,93884.97
2018-05-23T20:22:35.023Z,93881.53
2018-05-23T20:25:02.848Z,93887.41
2018-05-23T20:27:30.412Z,93891.89
2018-05-23T20:29:57.974Z,93892.36
2018-05-23T20:32:25.747Z,93890.75
2018-05-23T20:34:53.361Z,93888.63
2018-05-23T20:37:20.945Z,93893.91
2018-05-23T20:39:48.525Z,93891.78
2018-05-23T20:42:16.084Z,93897.78
2018-05-23T20:44:43.652Z,93895.04
2018-05-23T20:47:11.239Z,93892.67
2018-05-23T20:49:38.845Z,93898.68
2018-05-23T20:52:06.429Z,93897.31
2018-05-23T20:54:34.178Z,93901.49
2018-05-23T20:57:01.740Z,93898.58
2018-05-23T20:59:29.285Z,93899.53
2018-05-23T21:01:56.868Z,93895.29
2018-05-23T21:04:26.343Z,93902.45
2018-05-23T21:06:53.901Z,93897.69
2018-05-23T21:09:21.607Z,93901.73
2018-05-23T21:11:49.168Z,93896.03
2018-05-23T21:14:16.725Z,93897.75
2018-05-23T21:16:44.461Z,93900.18
2018-05-23T21:19:12.021Z,93894.63
2018-05-23T21:21:39.586Z,93899.11
2018-05-23T21:24:07.181Z,93896.69
2018-05-23T21:26:34.747Z,93900.45
2018-05-23T21:29:02.292Z,93899.56
2018-05-23T21:31:29.893Z,93901.38
2018-05-23T21:33:57.447Z,93898.70
2018-05-23T21:36:25.000Z,93893.43
2018-05-23T21:38:52.744Z,93894.11
2018-05-23T21:41:20.292Z,93894.91
2018-05-23T21:43:47.857Z,93887.87
2018-05-23T21:46:15.456Z,93882.36
2018-05-23T21:48:43.076Z,93877.59
2018-05-23T21:51:11.140Z,93871.88
2018-05-23T21:53:39.063Z,93875.23
2018-05-23T21:56:06.617Z,93878.77
2018-05-23T21:58:34.164Z,93877.05
2018-05-23T22:01:01.723Z,93880.34
2018-05-23T22:03:29.275Z,93876.94
2018-05-23T22:05:56.966Z,93876.91
2018-05-23T22:08:24.556Z,93872.32
2018-05-23T22:10:52.121Z,93871.59
2018-05-23T22:13:19.693Z,93886.54
2018-05-23T22:15:47.241Z,93887.36
2018-05-23T22:18:14.814Z,93884.38
2018-05-23T22:20:42.418Z,93893.63
2018-05-23T22:23:09.977Z,93895.59
2018-05-23T22:25:37.523Z,93897.13
2018-05-23T22:28:05.261Z,93891.72
2018-05-23T22:30:32.883Z,93879.45
2018-05-23T22:33:00.388Z,93877.80
2018-05-23T22:35:27.964Z,93879.48
2018-05-23T22:37:55.510Z,93877.22
2018-05-23T22:40:23.088Z,93868.09
2018-05-23T22:42:50.693Z,93869.67
2018-05-23T22:45:18.253Z,93867.57
2018-05-23T22:47:45.801Z,93864.22
2018-05-23T22:50:13.378Z,93868.73
2018-05-23T22:52:40.932Z,93866.95
2018-05-23T22:55:08.509Z,93857.92
2018-05-23T22:57:36.089Z,93868.82
2018-05-23T23:00:03.651Z,93866.69
2018-05-23T23:02:31.204Z,93866.47
2018-05-23T23:04:58.792Z,93861.16
2018-05-23T23:07:26.360Z,93862.08
2018-05-23T23:09:53.913Z,93868.18
2018-05-23T23:12:21.477Z,93864.13
2018-05-23T23:14:49.016Z,93865.77
2018-05-23T23:17:16.568Z,93865.02
2018-05-23T23:19:44.326Z,93863.61
2018-05-23T23:22:23.615Z,93865.45
2018-05-23T23:24:51.328Z,93864.38
2018-05-23T23:27:18.877Z,93865.42
2018-05-23T23:29:46.483Z,93870.02
2018-05-23T23:32:14.093Z,93865.55
2018-05-23T23:34:41.637Z,93864.80
2018-05-23T23:37:09.187Z,93857.25
2018-05-23T23:39:36.772Z,93858.83
2018-05-23T23:42:04.318Z,93857.36
2018-05-23T23:44:31.873Z,93850.16
2018-05-23T23:46:59.779Z,93846.62
2018-05-23T23:49:27.342Z,93839.64
2018-05-23T23:51:54.875Z,93837.87
2018-05-23T23:54:22.596Z,93836.40
2018-05-23T23:56:50.135Z,93836.38
2018-05-23T23:59:17.679Z,93834.31
